Time;durP1;ratioP1;P1;durP2;ratioP2;P2;SDS_P1;SDS_P2;PMS_P1;PMS_P2;Temp;Humidity;BMP_temperature;BMP_pressure;BME280_temperature;BME280_humidity;BME280_pressure;Samples;Min_cycle;Max_cycle;Signal;HPM_P1;HPM_P2
2019/12/17 00:00:44;;;;;;;1.79;1.60;;;;;;;20.21;43.74;99318.33;;;;-49
2019/12/17 00:03:44;;;;;;;2.29;1.64;;;;;;;20.19;43.74;99328.34;;;;-47
2019/12/17 00:06:44;;;;;;;1.80;1.70;;;;;;;20.18;43.71;99338.47;;;;-51
2019/12/17 00:09:44;;;;;;;1.86;1.71;;;;;;;20.17;43.73;99341.87;;;;-47
2019/12/17 00:12:44;;;;;;;1.81;1.69;;;;;;;20.16;43.77;99346.04;;;;-48
2019/12/17 00:15:44;;;;;;;1.65;1.55;;;;;;;20.14;43.78;99357.89;;;;-51
2019/12/17 00:18:44;;;;;;;2.05;1.65;;;;;;;20.14;43.79;99365.36;;;;-48
2019/12/17 00:21:44;;;;;;;2.02;1.69;;;;;;;20.12;43.79;99368.73;;;;-47
2019/12/17 00:24:44;;;;;;;1.70;1.60;;;;;;;20.11;43.81;99356.48;;;;-48
2019/12/17 00:27:44;;;;;;;1.99;1.70;;;;;;;20.09;43.79;99360.45;;;;-51
2019/12/17 00:30:45;;;;;;;1.63;1.53;;;;;;;20.08;43.79;99368.97;;;;-51
2019/12/17 00:33:44;;;;;;;1.93;1.69;;;;;;;20.07;43.81;99373.91;;;;-47
2019/12/17 00:36:44;;;;;;;1.60;1.50;;;;;;;20.07;43.82;99383.20;;;;-51
2019/12/17 00:39:44;;;;;;;1.74;1.64;;;;;;;20.04;43.81;99382.48;;;;-51
2019/12/17 00:42:45;;;;;;;1.61;1.51;;;;;;;20.03;43.84;99383.80;;;;-51
2019/12/17 00:45:44;;;;;;;1.83;1.73;;;;;;;20.02;43.80;99378.48;;;;-47
2019/12/17 00:48:44;;;;;;;1.75;1.59;;;;;;;20.02;43.81;99377.14;;;;-50
2019/12/17 00:51:55;;;;;;;1.69;1.59;;;;;;;20.00;43.80;99371.72;;;;-51
2019/12/17 00:55:44;;;;;;;1.70;1.60;;;;;;;19.98;43.79;99370.30;;;;-50
2019/12/17 00:58:44;;;;;;;1.77;1.67;;;;;;;19.97;43.77;99369.10;;;;-50
2019/12/17 01:01:44;;;;;;;1.81;1.70;;;;;;;19.97;43.81;99372.62;;;;-47
2019/12/17 01:04:44;;;;;;;1.74;1.64;;;;;;;19.96;43.78;99375.20;;;;-48
2019/12/17 01:07:44;;;;;;;1.76;1.66;;;;;;;19.95;43.82;99371.39;;;;-47
2019/12/17 01:10:44;;;;;;;1.67;1.57;;;;;;;19.93;43.80;99370.11;;;;-47
2019/12/17 01:13:44;;;;;;;1.69;1.59;;;;;;;19.92;43.80;99369.34;;;;-47
2019/12/17 01:16:44;;;;;;;1.65;1.55;;;;;;;19.91;43.78;99369.62;;;;-50
2019/12/17 01:19:44;;;;;;;1.78;1.62;;;;;;;19.90;43.83;99357.05;;;;-47
2019/12/17 01:22:44;;;;;;;1.70;1.60;;;;;;;19.89;43.85;99344.20;;;;-46
2019/12/17 01:25:44;;;;;;;1.73;1.63;;;;;;;19.88;43.84;99330.27;;;;-51
2019/12/17 01:28:44;;;;;;;1.58;1.48;;;;;;;19.87;43.83;99355.61;;;;-47
2019/12/17 01:31:44;;;;;;;2.19;1.67;;;;;;;19.85;43.86;99358.77;;;;-47
2019/12/17 01:34:44;;;;;;;1.60;1.50;;;;;;;19.85;43.80;99364.61;;;;-47
2019/12/17 01:37:44;;;;;;;1.63;1.53;;;;;;;19.83;43.82;99373.63;;;;-47
2019/12/17 01:40:44;;;;;;;1.79;1.60;;;;;;;19.83;43.86;99382.85;;;;-50
2019/12/17 01:43:44;;;;;;;1.73;1.63;;;;;;;19.82;43.92;99398.58;;;;-47
2019/12/17 01:46:44;;;;;;;1.71;1.59;;;;;;;19.83;43.85;99408.89;;;;-50
2019/12/17 01:49:44;;;;;;;1.69;1.59;;;;;;;19.80;43.92;99409.41;;;;-51
2019/12/17 01:52:44;;;;;;;1.75;1.65;;;;;;;19.79;43.85;99408.88;;;;-47
2019/12/17 01:55:44;;;;;;;1.71;1.61;;;;;;;19.78;43.94;99418.64;;;;-48
2019/12/17 01:58:44;;;;;;;1.69;1.59;;;;;;;19.77;43.93;99408.83;;;;-48
2019/12/17 02:01:44;;;;;;;1.70;1.60;;;;;;;19.76;43.87;99421.87;;;;-52
2019/12/17 02:04:44;;;;;;;1.75;1.65;;;;;;;19.75;43.89;99415.48;;;;-48
2019/12/17 02:07:46;;;;;;;1.68;1.58;;;;;;;19.75;43.89;99414.30;;;;-49
2019/12/17 02:11:44;;;;;;;1.71;1.61;;;;;;;19.73;43.89;99421.26;;;;-50
2019/12/17 02:14:44;;;;;;;1.61;1.51;;;;;;;19.71;43.93;99428.00;;;;-48
2019/12/17 02:17:44;;;;;;;1.69;1.59;;;;;;;19.71;43.92;99414.70;;;;-48
2019/12/17 02:20:44;;;;;;;1.60;1.50;;;;;;;19.71;43.94;99421.87;;;;-47
2019/12/17 02:23:44;;;;;;;1.79;1.69;;;;;;;19.70;43.94;99412.80;;;;-50
2019/12/17 02:26:44;;;;;;;1.70;1.60;;;;;;;19.70;43.90;99416.31;;;;-51
2019/12/17 02:29:44;;;;;;;1.93;1.51;;;;;;;19.68;43.98;99409.70;;;;-51
2019/12/17 02:32:44;;;;;;;1.59;1.49;;;;;;;19.67;43.99;99422.80;;;;-50
2019/12/17 02:35:44;;;;;;;1.75;1.65;;;;;;;19.66;43.98;99410.88;;;;-51
2019/12/17 02:38:44;;;;;;;1.64;1.54;;;;;;;19.66;43.93;99425.22;;;;-50
2019/12/17 02:41:44;;;;;;;1.67;1.57;;;;;;;19.65;43.91;99426.09;;;;-51
2019/12/17 02:44:44;;;;;;;1.69;1.58;;;;;;;19.64;43.89;99425.23;;;;-48
2019/12/17 02:47:44;;;;;;;1.63;1.53;;;;;;;19.63;43.90;99419.67;;;;-47
2019/12/17 02:50:44;;;;;;;1.69;1.57;;;;;;;19.61;43.95;99415.03;;;;-47
2019/12/17 02:53:44;;;;;;;1.68;1.58;;;;;;;19.62;43.95;99429.53;;;;-48
2019/12/17 02:56:44;;;;;;;1.60;1.50;;;;;;;19.61;43.93;99424.21;;;;-51
2019/12/17 02:59:44;;;;;;;1.70;1.60;;;;;;;19.61;43.93;99436.87;;;;-50
2019/12/17 03:02:44;;;;;;;1.90;1.77;;;;;;;19.60;43.90;99407.10;;;;-47
2019/12/17 03:05:44;;;;;;;1.63;1.53;;;;;;;19.59;43.94;99413.03;;;;-48
2019/12/17 03:08:44;;;;;;;1.64;1.54;;;;;;;19.58;43.96;99411.84;;;;-50
2019/12/17 03:11:44;;;;;;;1.70;1.60;;;;;;;19.58;43.95;99411.00;;;;-52
2019/12/17 03:15:14;;;;;;;1.72;1.60;;;;;;;19.56;43.89;99417.30;;;;-50
2019/12/17 03:18:44;;;;;;;1.73;1.60;;;;;;;19.55;43.89;99423.48;;;;-47
2019/12/17 03:21:44;;;;;;;1.57;1.47;;;;;;;19.55;43.89;99429.44;;;;-52
2019/12/17 03:24:44;;;;;;;1.60;1.50;;;;;;;19.54;43.93;99397.83;;;;-48
2019/12/17 03:27:44;;;;;;;1.69;1.59;;;;;;;19.53;43.89;99429.22;;;;-51
2019/12/17 03:30:44;;;;;;;1.60;1.50;;;;;;;19.53;43.88;99407.02;;;;-50
2019/12/17 03:33:44;;;;;;;1.70;1.60;;;;;;;19.52;43.89;99413.78;;;;-47
2019/12/17 03:36:44;;;;;;;1.61;1.51;;;;;;;19.51;43.99;99412.31;;;;-51
2019/12/17 03:39:44;;;;;;;1.52;1.42;;;;;;;19.51;43.93;99395.57;;;;-52
2019/12/17 03:42:44;;;;;;;2.01;1.80;;;;;;;19.50;43.96;99434.66;;;;-52
2019/12/17 03:45:44;;;;;;;1.78;1.68;;;;;;;19.49;43.88;99409.52;;;;-48
2019/12/17 03:48:44;;;;;;;1.71;1.61;;;;;;;19.48;43.98;99417.45;;;;-47
2019/12/17 03:51:44;;;;;;;1.60;1.50;;;;;;;19.48;43.93;99420.13;;;;-51
2019/12/17 03:54:44;;;;;;;1.73;1.60;;;;;;;19.47;43.91;99400.52;;;;-47
2019/12/17 03:57:44;;;;;;;1.61;1.50;;;;;;;19.47;43.89;99405.94;;;;-48
2019/12/17 04:00:44;;;;;;;1.70;1.60;;;;;;;19.47;43.97;99421.84;;;;-52
2019/12/17 04:03:44;;;;;;;1.73;1.63;;;;;;;19.47;43.96;99431.13;;;;-47
2019/12/17 04:06:44;;;;;;;1.60;1.50;;;;;;;19.48;43.98;99439.80;;;;-50
2019/12/17 04:09:44;;;;;;;1.57;1.47;;;;;;;19.48;44.01;99442.70;;;;-48
2019/12/17 04:17:45;;;;;;;1.73;1.63;;;;;;;19.52;44.07;99455.38;;;;-50
2019/12/17 04:20:44;;;;;;;1.61;1.51;;;;;;;19.52;44.07;99420.31;;;;-50
2019/12/17 04:23:44;;;;;;;1.57;1.42;;;;;;;19.55;44.08;99416.95;;;;-47
2019/12/17 04:26:44;;;;;;;1.57;1.47;;;;;;;19.57;44.04;99453.84;;;;-48
2019/12/17 04:29:44;;;;;;;1.69;1.59;;;;;;;19.60;44.07;99434.16;;;;-48
2019/12/17 04:32:44;;;;;;;1.50;1.40;;;;;;;19.63;43.99;99438.77;;;;-47
2019/12/17 04:35:44;;;;;;;1.56;1.46;;;;;;;19.66;44.02;99442.20;;;;-48
2019/12/17 04:38:44;;;;;;;1.56;1.46;;;;;;;19.70;44.07;99436.62;;;;-47
2019/12/17 04:41:44;;;;;;;1.69;1.59;;;;;;;19.73;44.09;99442.80;;;;-51
2019/12/17 04:44:44;;;;;;;1.61;1.51;;;;;;;19.77;44.13;99467.86;;;;-50
2019/12/17 04:47:44;;;;;;;1.52;1.42;;;;;;;19.80;44.09;99448.84;;;;-51
2019/12/17 04:50:44;;;;;;;1.82;1.70;;;;;;;19.83;44.08;99420.62;;;;-51
2019/12/17 04:53:44;;;;;;;1.60;1.50;;;;;;;19.85;44.13;99429.11;;;;-48
2019/12/17 04:56:44;;;;;;;1.59;1.49;;;;;;;19.87;44.18;99457.52;;;;-47
2019/12/17 04:59:44;;;;;;;1.51;1.41;;;;;;;19.90;44.18;99457.33;;;;-48
2019/12/17 05:02:44;;;;;;;2.35;2.15;;;;;;;19.64;41.18;99439.30;;;;-49
2019/12/17 05:05:44;;;;;;;3.43;2.60;;;;;;;19.56;41.08;99445.37;;;;-51
2019/12/17 05:08:44;;;;;;;2.79;2.35;;;;;;;19.48;40.74;99481.59;;;;-51
2019/12/17 05:11:44;;;;;;;3.91;2.27;;;;;;;19.43;40.79;99440.59;;;;-46
2019/12/17 05:14:53;;;;;;;7.17;2.36;;;;;;;19.56;41.59;99476.59;;;;-50
2019/12/17 05:17:44;;;;;;;6.91;2.43;;;;;;;19.64;41.87;99454.71;;;;-49
2019/12/17 05:20:44;;;;;;;2.83;2.23;;;;;;;19.68;42.22;99467.37;;;;-49
2019/12/17 05:23:44;;;;;;;2.63;2.13;;;;;;;19.72;42.44;99477.14;;;;-50
2019/12/17 05:26:44;;;;;;;3.17;2.30;;;;;;;19.75;42.56;99478.73;;;;-50
2019/12/17 05:29:44;;;;;;;2.87;2.32;;;;;;;19.79;42.62;99489.20;;;;-47
2019/12/17 05:32:44;;;;;;;3.51;2.10;;;;;;;19.81;42.66;99491.52;;;;-47
2019/12/17 05:35:44;;;;;;;2.91;2.01;;;;;;;19.84;42.67;99510.84;;;;-47
2019/12/17 05:38:44;;;;;;;2.99;1.99;;;;;;;19.85;42.69;99506.38;;;;-49
2019/12/17 05:41:47;;;;;;;2.99;2.06;;;;;;;19.88;42.69;99498.83;;;;-49
2019/12/17 05:44:46;;;;;;;3.20;2.21;;;;;;;19.89;42.73;99507.91;;;;-49
2019/12/17 05:47:44;;;;;;;2.28;2.08;;;;;;;19.90;42.77;99516.64;;;;-49
2019/12/17 05:50:44;;;;;;;3.79;2.15;;;;;;;19.93;42.95;99523.06;;;;-50
2019/12/17 05:53:44;;;;;;;3.45;2.09;;;;;;;19.94;43.07;99515.81;;;;-54
2019/12/17 05:56:44;;;;;;;2.88;2.11;;;;;;;19.95;43.22;99529.11;;;;-47
2019/12/17 05:59:44;;;;;;;2.39;2.05;;;;;;;19.97;43.22;99544.31;;;;-49
2019/12/17 06:02:44;;;;;;;2.29;2.09;;;;;;;19.98;43.38;99551.45;;;;-50
2019/12/17 06:05:44;;;;;;;2.15;1.95;;;;;;;19.99;43.43;99564.52;;;;-56
2019/12/17 06:08:44;;;;;;;2.20;2.00;;;;;;;19.99;43.47;99547.33;;;;-46
2019/12/17 06:11:44;;;;;;;2.14;1.91;;;;;;;20.01;43.59;99535.14;;;;-45
2019/12/17 06:14:45;;;;;;;4.93;2.09;;;;;;;20.03;43.69;99550.45;;;;-47
2019/12/17 06:17:44;;;;;;;3.83;2.03;;;;;;;20.03;43.46;99545.49;;;;-47
2019/12/17 06:20:49;;;;;;;2.17;1.91;;;;;;;20.03;43.44;99569.39;;;;-48
2019/12/17 06:23:57;;;;;;;2.25;1.96;;;;;;;20.03;43.32;99561.52;;;;-50
2019/12/17 06:26:44;;;;;;;2.51;2.03;;;;;;;20.02;43.34;99552.94;;;;-50
2019/12/17 06:29:44;;;;;;;1.91;1.79;;;;;;;20.02;43.31;99549.82;;;;-44
2019/12/17 06:32:44;;;;;;;2.14;1.94;;;;;;;20.01;43.28;99566.65;;;;-50
2019/12/17 06:35:44;;;;;;;1.96;1.76;;;;;;;20.02;43.25;99561.41;;;;-50
2019/12/17 06:38:44;;;;;;;2.22;2.02;;;;;;;20.01;43.23;99571.58;;;;-47
2019/12/17 06:41:44;;;;;;;2.13;1.90;;;;;;;20.01;43.24;99567.32;;;;-48
2019/12/17 06:44:44;;;;;;;2.10;1.90;;;;;;;20.00;43.20;99561.77;;;;-46
2019/12/17 06:47:44;;;;;;;2.77;1.93;;;;;;;19.99;43.18;99548.93;;;;-45
2019/12/17 06:50:44;;;;;;;2.00;1.90;;;;;;;19.99;43.16;99542.90;;;;-45
2019/12/17 06:53:44;;;;;;;2.35;1.85;;;;;;;19.99;43.17;99552.25;;;;-45
2019/12/17 06:56:47;;;;;;;2.15;1.83;;;;;;;19.98;43.15;99550.58;;;;-45
2019/12/17 07:02:48;;;;;;;2.24;1.91;;;;;;;19.97;43.51;99538.45;;;;-43
2019/12/17 07:05:44;;;;;;;4.59;2.04;;;;;;;19.97;43.63;99544.72;;;;-47
2019/12/17 07:08:44;;;;;;;3.05;1.89;;;;;;;19.97;43.76;99531.08;;;;-47
2019/12/17 07:11:44;;;;;;;2.32;1.95;;;;;;;19.98;43.87;99529.67;;;;-48
2019/12/17 07:14:44;;;;;;;3.81;2.06;;;;;;;19.98;43.83;99531.23;;;;-48
2019/12/17 07:17:44;;;;;;;1.91;1.80;;;;;;;19.99;43.88;99529.56;;;;-48
2019/12/17 07:20:45;;;;;;;3.21;1.89;;;;;;;19.99;43.96;99532.98;;;;-48
2019/12/17 07:23:45;;;;;;;2.79;1.90;;;;;;;20.00;43.88;99540.38;;;;-48
2019/12/17 07:26:48;;;;;;;2.17;1.97;;;;;;;20.00;43.94;99534.85;;;;-47
2019/12/17 07:29:44;;;;;;;2.58;1.85;;;;;;;20.00;43.93;99530.86;;;;-46
2019/12/17 07:32:44;;;;;;;3.46;2.10;;;;;;;19.99;43.96;99525.03;;;;-47
2019/12/17 07:35:44;;;;;;;2.46;1.97;;;;;;;19.99;43.95;99522.69;;;;-48
2019/12/17 07:38:44;;;;;;;6.33;2.15;;;;;;;20.01;43.94;99526.43;;;;-46
2019/12/17 07:41:44;;;;;;;4.52;2.03;;;;;;;20.01;43.91;99533.80;;;;-43
2019/12/17 07:44:44;;;;;;;3.53;2.10;;;;;;;20.00;43.88;99544.00;;;;-46
2019/12/17 07:47:44;;;;;;;4.79;2.15;;;;;;;20.00;43.94;99541.92;;;;-47
2019/12/17 07:50:44;;;;;;;2.07;1.87;;;;;;;20.00;43.90;99542.39;;;;-46
2019/12/17 07:53:44;;;;;;;4.19;1.90;;;;;;;20.00;43.94;99550.80;;;;-45
2019/12/17 07:56:44;;;;;;;3.01;1.98;;;;;;;20.01;43.90;99556.43;;;;-45
2019/12/17 07:59:44;;;;;;;3.05;2.03;;;;;;;20.01;43.94;99552.07;;;;-47
2019/12/17 08:02:44;;;;;;;2.25;1.90;;;;;;;20.01;43.89;99554.75;;;;-46
2019/12/17 08:05:44;;;;;;;2.47;1.98;;;;;;;20.00;43.97;99554.72;;;;-46
2019/12/17 08:08:44;;;;;;;2.24;1.99;;;;;;;20.02;43.93;99553.00;;;;-46
2019/12/17 08:11:44;;;;;;;3.33;1.76;;;;;;;20.02;44.00;99558.20;;;;-45
2019/12/17 08:14:44;;;;;;;4.57;1.97;;;;;;;20.02;43.92;99557.13;;;;-46
2019/12/17 08:17:44;;;;;;;2.53;1.98;;;;;;;20.02;43.89;99562.25;;;;-43
2019/12/17 08:20:44;;;;;;;4.37;2.15;;;;;;;20.03;43.65;99575.76;;;;-47
2019/12/17 08:23:44;;;;;;;4.05;1.88;;;;;;;20.03;43.73;99598.55;;;;-51
2019/12/17 08:26:44;;;;;;;4.40;1.89;;;;;;;20.05;43.84;99605.88;;;;-48
2019/12/17 08:29:44;;;;;;;4.07;1.94;;;;;;;20.03;43.78;99603.84;;;;-48
2019/12/17 08:32:44;;;;;;;2.52;1.90;;;;;;;20.03;43.76;99604.48;;;;-48
2019/12/17 08:35:44;;;;;;;3.77;2.07;;;;;;;20.02;43.90;99610.76;;;;-49
2019/12/17 08:38:45;;;;;;;2.99;1.84;;;;;;;20.02;43.90;99612.87;;;;-56
2019/12/17 08:45:44;;;;;;;2.20;1.87;;;;;;;20.09;44.08;99613.30;;;;-52
2019/12/17 08:48:44;;;;;;;3.22;1.89;;;;;;;20.13;44.14;99609.30;;;;-52
2019/12/17 08:51:44;;;;;;;3.43;2.04;;;;;;;20.18;44.28;99608.16;;;;-48
2019/12/17 08:54:44;;;;;;;3.04;1.87;;;;;;;20.23;44.30;99610.08;;;;-51
2019/12/17 08:57:44;;;;;;;2.37;1.90;;;;;;;20.26;44.32;99611.33;;;;-46
2019/12/17 09:00:44;;;;;;;2.37;1.82;;;;;;;20.31;44.32;99609.96;;;;-47
2019/12/17 09:03:44;;;;;;;3.07;1.75;;;;;;;20.33;44.07;99609.24;;;;-51
2019/12/17 09:06:44;;;;;;;2.27;1.80;;;;;;;20.37;43.88;99614.22;;;;-49
2019/12/17 09:09:44;;;;;;;3.05;1.87;;;;;;;20.42;43.93;99628.88;;;;-49
2019/12/17 09:12:44;;;;;;;3.83;1.81;;;;;;;20.44;43.45;99639.90;;;;-52
2019/12/17 09:15:44;;;;;;;2.55;1.79;;;;;;;20.46;43.30;99638.71;;;;-52
2019/12/17 09:18:44;;;;;;;1.99;1.83;;;;;;;20.48;43.31;99648.63;;;;-52
2019/12/17 09:21:45;;;;;;;2.03;1.82;;;;;;;20.50;43.16;99652.78;;;;-53
2019/12/17 09:24:44;;;;;;;2.39;1.87;;;;;;;20.52;43.15;99650.83;;;;-52
2019/12/17 09:27:44;;;;;;;4.18;1.69;;;;;;;20.53;43.17;99652.70;;;;-49
2019/12/17 09:30:44;;;;;;;1.90;1.69;;;;;;;20.56;43.72;99667.80;;;;-50
2019/12/17 09:33:44;;;;;;;2.57;1.84;;;;;;;20.59;44.03;99673.59;;;;-51
2019/12/17 09:36:44;;;;;;;2.12;1.68;;;;;;;20.61;44.15;99664.18;;;;-50
2019/12/17 09:39:44;;;;;;;3.97;1.71;;;;;;;20.64;44.20;99651.65;;;;-49
2019/12/17 09:42:44;;;;;;;2.29;1.68;;;;;;;20.67;44.21;99656.93;;;;-48
2019/12/17 09:45:44;;;;;;;3.89;1.89;;;;;;;20.73;44.46;99651.89;;;;-48
2019/12/17 09:48:44;;;;;;;2.39;1.77;;;;;;;20.74;43.81;99650.57;;;;-49
2019/12/17 09:51:44;;;;;;;2.01;1.72;;;;;;;20.77;43.65;99652.66;;;;-50
2019/12/17 09:54:44;;;;;;;3.61;1.80;;;;;;;20.80;43.77;99651.70;;;;-49
2019/12/17 09:57:44;;;;;;;3.20;1.83;;;;;;;20.84;43.75;99650.17;;;;-50
2019/12/17 10:01:18;;;;;;;3.53;1.75;;;;;;;20.84;43.57;99654.62;;;;-50
2019/12/17 10:05:08;;;;;;;2.73;1.81;;;;;;;20.87;43.99;99654.95;;;;-49
2019/12/17 10:08:44;;;;;;;4.03;1.84;;;;;;;20.91;44.14;99654.30;;;;-50
2019/12/17 10:11:44;;;;;;;2.29;1.89;;;;;;;20.93;44.32;99647.91;;;;-51
2019/12/17 10:14:44;;;;;;;2.87;1.76;;;;;;;20.93;44.01;99645.46;;;;-50
2019/12/17 10:17:44;;;;;;;2.59;1.77;;;;;;;20.95;44.25;99643.23;;;;-49
2019/12/17 10:20:44;;;;;;;2.49;1.81;;;;;;;20.96;44.21;99634.13;;;;-50
2019/12/17 10:23:44;;;;;;;1.91;1.70;;;;;;;20.97;43.65;99633.91;;;;-51
2019/12/17 10:26:44;;;;;;;3.55;1.70;;;;;;;20.98;43.57;99635.45;;;;-51
2019/12/17 10:29:44;;;;;;;3.41;1.99;;;;;;;20.95;42.69;99637.19;;;;-52
2019/12/17 10:32:44;;;;;;;2.14;1.94;;;;;;;20.96;42.73;99627.64;;;;-52
2019/12/17 10:35:44;;;;;;;2.69;1.95;;;;;;;20.98;43.13;99624.94;;;;-52
2019/12/17 10:38:44;;;;;;;3.83;1.75;;;;;;;21.00;43.06;99630.27;;;;-48
2019/12/17 10:41:44;;;;;;;4.02;1.89;;;;;;;21.02;43.19;99629.84;;;;-46
2019/12/17 10:44:44;;;;;;;2.74;1.78;;;;;;;21.03;43.22;99635.73;;;;-46
2019/12/17 10:47:44;;;;;;;1.97;1.76;;;;;;;21.03;43.12;99629.77;;;;-46
2019/12/17 10:50:44;;;;;;;4.39;1.82;;;;;;;21.03;43.06;99642.26;;;;-46
2019/12/17 10:53:45;;;;;;;2.03;1.80;;;;;;;21.03;43.05;99644.30;;;;-46
2019/12/17 10:56:48;;;;;;;2.23;1.75;;;;;;;21.04;43.02;99640.10;;;;-46
2019/12/17 11:00:44;;;;;;;1.69;1.59;;;;;;;21.03;43.12;99634.47;;;;-47
2019/12/17 11:03:44;;;;;;;2.53;1.63;;;;;;;21.04;43.22;99638.42;;;;-47
2019/12/17 11:06:44;;;;;;;1.81;1.69;;;;;;;21.04;43.09;99644.03;;;;-46
2019/12/17 11:09:44;;;;;;;4.19;1.70;;;;;;;21.03;43.04;99645.55;;;;-46
2019/12/17 11:12:44;;;;;;;2.81;1.69;;;;;;;21.04;43.10;99642.35;;;;-47
2019/12/17 11:15:44;;;;;;;1.83;1.66;;;;;;;21.03;43.06;99639.34;;;;-46
2019/12/17 11:18:44;;;;;;;2.04;1.77;;;;;;;21.03;43.01;99645.98;;;;-46
2019/12/17 11:21:44;;;;;;;3.68;1.66;;;;;;;21.06;43.33;99646.36;;;;-43
2019/12/17 11:24:45;;;;;;;2.24;1.92;;;;;;;21.07;43.17;99646.95;;;;-45
2019/12/17 11:27:44;;;;;;;3.41;1.97;;;;;;;21.06;42.95;99639.34;;;;-51
2019/12/17 11:30:44;;;;;;;2.37;2.14;;;;;;;21.07;42.79;99631.30;;;;-43
2019/12/17 11:33:46;;;;;;;2.09;1.89;;;;;;;21.08;42.99;99632.17;;;;-44
2019/12/17 11:36:44;;;;;;;2.08;1.88;;;;;;;21.10;42.83;99630.44;;;;-45
2019/12/17 11:39:44;;;;;;;2.44;2.11;;;;;;;21.12;43.40;99625.02;;;;-46
2019/12/17 11:42:48;;;;;;;2.10;1.90;;;;;;;21.13;43.00;99616.22;;;;-46
2019/12/17 11:46:44;;;;;;;3.17;2.12;;;;;;;21.14;42.91;99610.39;;;;-49
2019/12/17 11:49:44;;;;;;;2.22;2.02;;;;;;;21.15;42.51;99603.03;;;;-47
2019/12/17 11:52:44;;;;;;;3.07;2.04;;;;;;;21.15;43.14;99598.89;;;;-46
2019/12/17 11:55:45;;;;;;;2.53;2.10;;;;;;;21.16;43.08;99596.84;;;;-44
2019/12/17 11:58:45;;;;;;;2.40;2.02;;;;;;;21.16;43.51;99598.76;;;;-50
2019/12/17 12:01:44;;;;;;;2.93;2.25;;;;;;;21.17;43.72;99593.57;;;;-50
2019/12/17 12:04:44;;;;;;;4.29;2.18;;;;;;;21.18;42.79;99597.03;;;;-51
2019/12/17 12:07:44;;;;;;;4.35;1.91;;;;;;;21.21;43.39;99600.39;;;;-49
2019/12/17 12:10:44;;;;;;;3.46;2.30;;;;;;;21.23;43.22;99602.28;;;;-50
2019/12/17 12:13:44;;;;;;;3.71;2.03;;;;;;;21.23;42.73;99602.45;;;;-49
2019/12/17 12:16:44;;;;;;;3.77;1.99;;;;;;;21.24;42.44;99602.54;;;;-50
2019/12/17 12:19:44;;;;;;;2.48;2.06;;;;;;;21.25;42.43;99595.84;;;;-50
2019/12/17 12:22:44;;;;;;;3.95;2.07;;;;;;;21.24;42.27;99594.74;;;;-51
2019/12/17 12:25:44;;;;;;;5.19;2.19;;;;;;;21.25;42.82;99589.13;;;;-47
2019/12/17 12:28:44;;;;;;;5.31;2.10;;;;;;;21.26;42.79;99583.54;;;;-50
2019/12/17 12:31:49;;;;;;;3.49;2.11;;;;;;;21.28;42.67;99579.89;;;;-50
2019/12/17 12:39:44;;;;;;;3.69;2.10;;;;;;;21.30;43.14;99576.38;;;;-51
2019/12/17 12:42:44;;;;;;;3.19;2.06;;;;;;;21.30;43.16;99570.27;;;;-52
2019/12/17 12:45:44;;;;;;;3.76;1.95;;;;;;;21.29;42.91;99571.34;;;;-50
2019/12/17 12:48:45;;;;;;;2.48;1.81;;;;;;;21.28;42.92;99575.36;;;;-51
2019/12/17 12:51:44;;;;;;;2.50;2.05;;;;;;;21.30;42.98;99577.33;;;;-51
2019/12/17 12:54:44;;;;;;;2.73;1.82;;;;;;;21.28;42.82;99583.99;;;;-51
2019/12/17 12:57:44;;;;;;;2.39;1.90;;;;;;;21.28;42.82;99591.48;;;;-51
2019/12/17 13:00:44;;;;;;;2.71;2.06;;;;;;;21.28;42.88;99596.66;;;;-52
2019/12/17 13:03:44;;;;;;;2.26;2.00;;;;;;;21.28;42.83;99601.55;;;;-51
2019/12/17 13:06:44;;;;;;;2.19;1.80;;;;;;;21.29;42.88;99605.18;;;;-50
2019/12/17 13:09:44;;;;;;;4.39;1.93;;;;;;;21.28;42.84;99601.05;;;;-51
2019/12/17 13:12:44;;;;;;;2.08;1.74;;;;;;;21.29;42.81;99613.17;;;;-51
2019/12/17 13:15:44;;;;;;;2.17;1.97;;;;;;;21.30;42.86;99609.13;;;;-51
2019/12/17 13:18:44;;;;;;;3.19;1.75;;;;;;;21.30;42.87;99607.89;;;;-51
2019/12/17 13:21:44;;;;;;;1.87;1.70;;;;;;;21.31;42.86;99608.59;;;;-50
2019/12/17 13:24:44;;;;;;;4.59;2.03;;;;;;;21.32;42.81;99605.25;;;;-48
2019/12/17 13:27:44;;;;;;;2.32;1.97;;;;;;;21.35;42.71;99603.40;;;;-49
2019/12/17 13:31:04;;;;;;;4.65;2.15;;;;;;;21.35;42.61;99599.70;;;;-49
2019/12/17 13:33:45;;;;;;;5.75;2.02;;;;;;;21.35;42.61;99603.97;;;;-49
2019/12/17 13:36:44;;;;;;;2.09;1.89;;;;;;;21.35;42.70;99599.84;;;;-49
2019/12/17 13:39:45;;;;;;;2.05;1.81;;;;;;;21.35;42.70;99598.86;;;;-49
2019/12/17 13:42:44;;;;;;;3.42;1.82;;;;;;;21.34;42.67;99601.19;;;;-49
2019/12/17 13:45:45;;;;;;;4.35;2.06;;;;;;;21.36;43.05;99603.32;;;;-49
2019/12/17 13:48:44;;;;;;;3.02;2.03;;;;;;;21.36;43.02;99600.13;;;;-49
2019/12/17 13:51:44;;;;;;;3.23;2.01;;;;;;;21.38;43.12;99603.27;;;;-50
2019/12/17 13:54:44;;;;;;;3.15;1.95;;;;;;;21.40;43.27;99605.70;;;;-48
2019/12/17 13:57:44;;;;;;;4.88;2.37;;;;;;;21.40;42.42;99603.25;;;;-50
2019/12/17 14:00:46;;;;;;;2.91;2.08;;;;;;;21.40;42.51;99597.27;;;;-50
2019/12/17 14:03:44;;;;;;;3.04;2.00;;;;;;;21.40;42.69;99600.97;;;;-50
2019/12/17 14:06:44;;;;;;;3.88;2.11;;;;;;;21.39;42.63;99599.36;;;;-51
2019/12/17 14:09:44;;;;;;;2.39;2.00;;;;;;;21.38;42.85;99605.79;;;;-51
2019/12/17 14:12:44;;;;;;;4.53;2.09;;;;;;;21.40;43.05;99611.31;;;;-60
2019/12/17 14:15:47;;;;;;;3.75;2.18;;;;;;;21.42;43.08;99604.20;;;;-59
2019/12/17 14:21:44;;;;;;;4.03;2.23;;;;;;;21.45;43.14;99607.22;;;;-59
2019/12/17 14:24:44;;;;;;;3.27;2.09;;;;;;;21.48;43.62;99605.08;;;;-50
2019/12/17 14:27:44;;;;;;;2.81;2.06;;;;;;;21.51;43.27;99606.52;;;;-52
2019/12/17 14:30:56;;;;;;;3.89;2.11;;;;;;;21.52;43.64;99607.35;;;;-53
2019/12/17 14:33:50;;;;;;;2.79;1.98;;;;;;;21.54;43.86;99611.36;;;;-51
2019/12/17 14:36:44;;;;;;;5.73;1.94;;;;;;;21.57;43.78;99608.14;;;;-50
2019/12/17 14:39:44;;;;;;;2.20;1.85;;;;;;;21.55;43.49;99612.56;;;;-48
2019/12/17 14:42:44;;;;;;;3.23;1.98;;;;;;;21.55;43.15;99621.13;;;;-48
2019/12/17 14:45:44;;;;;;;2.90;1.99;;;;;;;21.56;43.73;99623.27;;;;-46
2019/12/17 14:48:44;;;;;;;4.03;1.98;;;;;;;21.58;43.83;99630.51;;;;-50
2019/12/17 14:51:44;;;;;;;4.51;2.05;;;;;;;21.59;43.77;99627.30;;;;-48
2019/12/17 14:54:44;;;;;;;4.19;1.95;;;;;;;21.60;43.83;99628.47;;;;-49
2019/12/17 14:57:44;;;;;;;2.91;2.05;;;;;;;21.62;44.01;99633.39;;;;-50
2019/12/17 15:00:44;;;;;;;4.31;1.79;;;;;;;21.61;43.85;99635.55;;;;-46
2019/12/17 15:03:44;;;;;;;2.66;1.74;;;;;;;21.62;43.95;99633.48;;;;-46
2019/12/17 15:06:44;;;;;;;2.33;1.88;;;;;;;21.64;44.05;99632.88;;;;-48
2019/12/17 15:09:44;;;;;;;1.89;1.70;;;;;;;21.65;44.11;99631.20;;;;-49
2019/12/17 15:12:44;;;;;;;2.41;1.79;;;;;;;21.68;43.99;99636.48;;;;-52
2019/12/17 15:15:44;;;;;;;3.01;1.83;;;;;;;21.66;43.55;99643.35;;;;-52
2019/12/17 15:18:44;;;;;;;2.83;2.22;;;;;;;21.64;43.11;99654.20;;;;-50
2019/12/17 15:21:44;;;;;;;2.88;2.20;;;;;;;21.65;43.20;99654.80;;;;-49
2019/12/17 15:24:44;;;;;;;5.61;2.14;;;;;;;21.64;42.96;99657.16;;;;-49
2019/12/17 15:27:44;;;;;;;4.39;1.90;;;;;;;21.64;43.10;99658.06;;;;-49
2019/12/17 15:30:44;;;;;;;4.35;2.13;;;;;;;21.63;43.07;99656.89;;;;-49
2019/12/17 15:33:44;;;;;;;2.45;2.08;;;;;;;21.63;43.05;99658.55;;;;-49
2019/12/17 15:36:44;;;;;;;2.85;1.98;;;;;;;21.63;43.01;99649.00;;;;-49
2019/12/17 15:39:44;;;;;;;3.59;1.89;;;;;;;21.63;43.03;99650.41;;;;-49
2019/12/17 15:42:44;;;;;;;2.88;1.90;;;;;;;21.62;43.00;99652.50;;;;-49
2019/12/17 15:45:44;;;;;;;2.27;1.87;;;;;;;21.62;42.96;99654.52;;;;-49
2019/12/17 15:48:44;;;;;;;3.77;1.94;;;;;;;21.62;42.92;99647.87;;;;-49
2019/12/17 15:51:44;;;;;;;3.37;1.94;;;;;;;21.61;42.94;99649.79;;;;-49
2019/12/17 15:54:44;;;;;;;2.73;1.73;;;;;;;21.61;42.92;99653.48;;;;-49
2019/12/17 15:57:44;;;;;;;1.95;1.82;;;;;;;21.60;42.92;99656.99;;;;-49
2019/12/17 16:00:44;;;;;;;1.97;1.73;;;;;;;21.60;42.91;99663.95;;;;-49
2019/12/17 16:03:44;;;;;;;3.78;1.89;;;;;;;21.61;42.89;99672.69;;;;-49
2019/12/17 16:06:44;;;;;;;2.00;1.80;;;;;;;21.59;42.91;99677.94;;;;-49
2019/12/17 16:10:11;;;;;;;1.89;1.79;;;;;;;21.59;42.93;99678.81;;;;-49
2019/12/17 16:13:01;;;;;;;2.03;1.84;;;;;;;21.59;42.90;99675.35;;;;-49
2019/12/17 16:15:44;;;;;;;2.17;1.90;;;;;;;21.59;42.87;99676.27;;;;-49
2019/12/17 16:18:44;;;;;;;2.04;1.84;;;;;;;21.59;42.87;99676.45;;;;-49
2019/12/17 16:21:44;;;;;;;2.08;1.81;;;;;;;21.59;42.88;99675.83;;;;-49
2019/12/17 16:24:44;;;;;;;1.99;1.79;;;;;;;21.59;42.84;99671.25;;;;-49
2019/12/17 16:27:44;;;;;;;2.19;1.93;;;;;;;21.59;42.92;99660.64;;;;-49
2019/12/17 16:30:44;;;;;;;1.83;1.71;;;;;;;21.58;42.90;99648.08;;;;-49
2019/12/17 16:33:44;;;;;;;2.15;1.82;;;;;;;21.59;42.89;99644.53;;;;-49
2019/12/17 16:36:44;;;;;;;2.10;1.90;;;;;;;21.60;42.88;99645.91;;;;-49
2019/12/17 16:39:44;;;;;;;2.39;1.79;;;;;;;21.60;42.88;99645.70;;;;-49
2019/12/17 16:42:44;;;;;;;2.08;1.85;;;;;;;21.60;42.84;99656.63;;;;-49
2019/12/17 16:45:44;;;;;;;2.07;1.81;;;;;;;21.61;42.85;99659.91;;;;-49
2019/12/17 16:48:44;;;;;;;1.85;1.69;;;;;;;21.61;42.84;99649.77;;;;-49
2019/12/17 16:51:44;;;;;;;1.91;1.81;;;;;;;21.61;42.84;99652.98;;;;-49
2019/12/17 16:54:45;;;;;;;1.75;1.65;;;;;;;21.61;42.81;99639.88;;;;-49
2019/12/17 16:57:44;;;;;;;2.17;1.81;;;;;;;21.61;42.82;99628.69;;;;-49
2019/12/17 17:00:44;;;;;;;2.41;1.84;;;;;;;21.61;42.89;99639.17;;;;-49
2019/12/17 17:03:44;;;;;;;1.96;1.76;;;;;;;21.61;42.85;99640.02;;;;-49
2019/12/17 17:06:44;;;;;;;2.10;1.89;;;;;;;21.61;42.84;99631.20;;;;-49
2019/12/17 17:09:44;;;;;;;1.84;1.70;;;;;;;21.61;42.83;99625.59;;;;-49
2019/12/17 17:12:44;;;;;;;2.01;1.81;;;;;;;21.61;42.89;99620.45;;;;-49
2019/12/17 17:15:49;;;;;;;2.26;1.90;;;;;;;21.62;42.83;99616.92;;;;-49
2019/12/17 17:22:44;;;;;;;2.41;1.71;;;;;;;21.61;42.85;99608.83;;;;-49
2019/12/17 17:25:44;;;;;;;2.57;1.80;;;;;;;21.61;42.88;99607.78;;;;-49